Time;durP1;ratioP1;P1;durP2;ratioP2;P2;SDS_P1;SDS_P2;PMS_P1;PMS_P2;Temp;Humidity;BMP_temperature;BMP_pressure;BME280_temperature;BME280_humidity;BME280_pressure;Samples;Min_cycle;Max_cycle;Signal;HPM_P1;HPM_P2
2021/12/11 00:00:25;;;;;;;1.30;0.60;;;;;;;;;;5051612;28;20439;-75
2021/12/11 00:03:04;;;;;;;1.10;0.67;;;;;;;;;;5051718;28;20880;-75
2021/12/11 00:05:30;;;;;;;11.73;1.00;;;;;;;;;;5051470;28;20892;-75
2021/12/11 00:07:57;;;;;;;2.13;0.90;;;;;;;;;;5051663;28;20454;-73
2021/12/11 00:10:32;;;;;;;1.30;0.80;;;;;;;;;;5051735;28;20407;-74
2021/12/11 00:13:01;;;;;;;1.90;1.03;;;;;;;;;;5051556;28;20414;-73
2021/12/11 00:15:30;;;;;;;1.70;1.10;;;;;;;;;;5051624;28;20522;-74
2021/12/11 00:18:08;;;;;;;1.00;0.70;;;;;;;;;;5051585;28;21055;-74
2021/12/11 00:20:35;;;;;;;1.17;0.80;;;;;;;;;;5051342;28;20416;-74
2021/12/11 00:23:01;;;;;;;1.40;0.80;;;;;;;;;;5051876;28;20469;-74
2021/12/11 00:25:27;;;;;;;2.13;0.77;;;;;;;;;;5051743;28;20416;-75
2021/12/11 00:28:03;;;;;;;1.00;0.57;;;;;;;;;;5052850;28;20481;-74
2021/12/11 00:30:31;;;;;;;1.30;0.80;;;;;;;;;;5051318;28;20867;-74
2021/12/11 00:32:59;;;;;;;1.10;0.60;;;;;;;;;;5051712;28;20407;-74
2021/12/11 00:35:26;;;;;;;1.00;0.60;;;;;;;;;;5051502;28;20922;-74
2021/12/11 00:37:52;;;;;;;2.37;1.30;;;;;;;;;;5053345;28;20480;-73
2021/12/11 00:40:23;;;;;;;1.00;0.70;;;;;;;;;;5054796;28;20491;-73
2021/12/11 00:42:50;;;;;;;1.40;0.60;;;;;;;;;;5055143;28;20423;-73
2021/12/11 00:45:19;;;;;;;1.10;0.60;;;;;;;;;;5054703;28;20803;-73
2021/12/11 00:47:57;;;;;;;1.00;0.50;;;;;;;;;;5054876;28;20927;-73
2021/12/11 00:50:25;;;;;;;1.17;0.70;;;;;;;;;;5054643;28;20522;-73
2021/12/11 00:53:11;;;;;;;2.73;1.00;;;;;;;;;;5054929;28;20411;-73
2021/12/11 00:55:39;;;;;;;1.10;0.60;;;;;;;;;;5054506;28;20888;-73
2021/12/11 00:58:08;;;;;;;1.30;0.70;;;;;;;;;;5056072;28;20505;-73
2021/12/11 01:00:37;;;;;;;1.20;0.60;;;;;;;;;;5054307;28;20477;-75
2021/12/11 01:03:04;;;;;;;1.67;0.73;;;;;;;;;;5054781;28;20407;-74
2021/12/11 01:05:34;;;;;;;0.90;0.60;;;;;;;;;;5054526;28;20760;-74
2021/12/11 01:08:00;;;;;;;1.10;0.60;;;;;;;;;;5054707;28;20428;-74
2021/12/11 01:10:28;;;;;;;0.90;0.50;;;;;;;;;;5055424;28;20736;-74
2021/12/11 01:13:01;;;;;;;1.23;0.53;;;;;;;;;;5054331;28;20729;-74
2021/12/11 01:15:35;;;;;;;1.03;0.70;;;;;;;;;;5054367;28;20491;-74
2021/12/11 01:20:52;;;;;;;1.20;0.70;;;;;;;;;;5055085;28;20450;-74
2021/12/11 01:23:44;;;;;;;1.43;0.70;;;;;;;;;;5054482;28;20411;-74
2021/12/11 01:26:05;;;;;;;1.67;0.90;;;;;;;;;;5055245;28;20932;-74
2021/12/11 01:28:33;;;;;;;1.20;0.70;;;;;;;;;;5054036;28;20467;-74
2021/12/11 01:31:00;;;;;;;1.00;0.60;;;;;;;;;;5053618;28;20392;-74
2021/12/11 01:33:26;;;;;;;1.13;0.57;;;;;;;;;;5053849;28;20438;-74
2021/12/11 01:35:53;;;;;;;2.07;0.80;;;;;;;;;;5053899;28;20415;-74
2021/12/11 01:38:21;;;;;;;0.90;0.60;;;;;;;;;;5053777;28;20455;-74
2021/12/11 01:40:48;;;;;;;0.90;0.50;;;;;;;;;;5053504;28;20427;-74
2021/12/11 01:43:14;;;;;;;1.00;0.70;;;;;;;;;;5053679;28;20412;-74
2021/12/11 01:45:43;;;;;;;0.90;0.60;;;;;;;;;;5053378;28;20436;-74
2021/12/11 01:48:09;;;;;;;1.00;0.60;;;;;;;;;;5054052;28;20453;-74
2021/12/11 01:50:38;;;;;;;0.90;0.60;;;;;;;;;;5052659;28;20400;-74
2021/12/11 01:53:08;;;;;;;1.20;0.60;;;;;;;;;;5053192;28;20408;-74
2021/12/11 01:55:36;;;;;;;0.93;0.60;;;;;;;;;;5054565;28;20451;-74
2021/12/11 01:58:03;;;;;;;2.77;0.80;;;;;;;;;;5053331;28;20543;-74
2021/12/11 02:00:35;;;;;;;0.97;0.60;;;;;;;;;;5052852;28;20474;-73
2021/12/11 02:03:05;;;;;;;0.97;0.60;;;;;;;;;;5053543;28;20760;-73
2021/12/11 02:05:33;;;;;;;1.00;0.60;;;;;;;;;;5053397;28;20423;-74
2021/12/11 02:08:00;;;;;;;1.00;0.53;;;;;;;;;;5053290;28;20515;-73
2021/12/11 02:10:30;;;;;;;1.37;0.70;;;;;;;;;;5052954;28;20477;-73
2021/12/11 02:12:57;;;;;;;1.00;0.60;;;;;;;;;;5053192;28;20423;-73
2021/12/11 02:15:30;;;;;;;0.90;0.50;;;;;;;;;;5053263;28;20415;-73
2021/12/11 02:18:00;;;;;;;0.90;0.60;;;;;;;;;;5053166;28;20854;-73
2021/12/11 02:20:31;;;;;;;1.00;0.60;;;;;;;;;;5052634;28;20415;-73
2021/12/11 02:22:57;;;;;;;1.87;0.70;;;;;;;;;;5053152;28;20412;-74
2021/12/11 02:25:25;;;;;;;1.10;0.73;;;;;;;;;;5052941;28;20852;-73
2021/12/11 02:27:53;;;;;;;1.43;0.60;;;;;;;;;;5052783;28;20527;-75
2021/12/11 02:30:39;;;;;;;1.10;0.60;;;;;;;;;;5052566;28;20408;-75
2021/12/11 02:33:15;;;;;;;1.10;0.67;;;;;;;;;;5052545;28;20443;-74
2021/12/11 02:36:08;;;;;;;1.37;0.67;;;;;;;;;;5053190;28;20755;-74
2021/12/11 02:38:43;;;;;;;0.90;0.50;;;;;;;;;;5052699;28;20467;-74
2021/12/11 02:41:22;;;;;;;1.93;0.70;;;;;;;;;;5052403;28;20960;-74
2021/12/11 02:43:51;;;;;;;1.00;0.60;;;;;;;;;;5053928;28;20422;-74
2021/12/11 02:46:33;;;;;;;0.90;0.50;;;;;;;;;;5052597;28;20514;-74
2021/12/11 02:49:11;;;;;;;1.33;0.70;;;;;;;;;;5052668;28;20428;-74
2021/12/11 02:51:37;;;;;;;0.90;0.60;;;;;;;;;;5052655;28;20405;-73
2021/12/11 02:54:12;;;;;;;1.00;0.60;;;;;;;;;;5052646;28;20458;-73
2021/12/11 02:56:43;;;;;;;1.10;0.80;;;;;;;;;;5052518;28;20407;-73
2021/12/11 02:59:14;;;;;;;1.00;0.53;;;;;;;;;;5052096;28;20951;-73
2021/12/11 03:01:52;;;;;;;1.10;0.60;;;;;;;;;;5052401;28;20420;-73
2021/12/11 03:04:28;;;;;;;1.10;0.60;;;;;;;;;;5052361;28;20465;-73
2021/12/11 03:06:55;;;;;;;1.00;0.60;;;;;;;;;;5052500;28;20419;-74
2021/12/11 03:09:26;;;;;;;1.10;0.60;;;;;;;;;;5051981;28;20411;-73
2021/12/11 03:11:54;;;;;;;1.10;0.70;;;;;;;;;;5052427;28;20408;-73
2021/12/11 03:14:21;;;;;;;1.07;0.50;;;;;;;;;;5052151;28;20443;-73
2021/12/11 03:16:50;;;;;;;1.30;0.80;;;;;;;;;;5052176;28;20515;-73
2021/12/11 03:19:17;;;;;;;1.30;0.60;;;;;;;;;;5051758;28;20459;-73
2021/12/11 03:21:43;;;;;;;0.97;0.57;;;;;;;;;;5052155;28;20473;-73
2021/12/11 03:24:10;;;;;;;0.93;0.50;;;;;;;;;;5052271;28;20875;-73
2021/12/11 03:26:38;;;;;;;1.00;0.60;;;;;;;;;;5052108;28;20410;-73
2021/12/11 03:29:05;;;;;;;0.90;0.50;;;;;;;;;;5052197;28;20465;-73
2021/12/11 03:31:35;;;;;;;1.10;0.60;;;;;;;;;;5051710;28;20411;-73
2021/12/11 03:34:01;;;;;;;0.90;0.57;;;;;;;;;;5052038;28;20412;-74
2021/12/11 03:36:30;;;;;;;1.00;0.60;;;;;;;;;;5052053;28;20887;-73
2021/12/11 03:38:58;;;;;;;1.20;0.70;;;;;;;;;;5051975;28;20506;-73
2021/12/11 03:41:25;;;;;;;1.13;0.60;;;;;;;;;;5051685;28;20423;-73
2021/12/11 03:43:52;;;;;;;1.10;0.70;;;;;;;;;;5053257;28;20438;-73
2021/12/11 03:46:19;;;;;;;1.00;0.50;;;;;;;;;;5096883;22;20477;-80
2021/12/11 03:48:50;;;;;;;1.00;0.67;;;;;;;;;;5062488;28;20418;-80
2021/12/11 03:51:17;;;;;;;1.47;0.63;;;;;;;;;;5078861;28;20410;-81
2021/12/11 03:53:43;;;;;;;0.90;0.50;;;;;;;;;;5062705;28;20410;-81
2021/12/11 03:56:11;;;;;;;0.90;0.60;;;;;;;;;;5062354;28;20434;-81
2021/12/11 03:58:38;;;;;;;0.90;0.60;;;;;;;;;;5062050;28;20528;-81
2021/12/11 04:01:07;;;;;;;0.93;0.57;;;;;;;;;;5079949;28;20410;-81
2021/12/11 04:03:36;;;;;;;1.10;0.60;;;;;;;;;;5079741;28;20391;-81
2021/12/11 04:06:04;;;;;;;0.90;0.60;;;;;;;;;;5061526;28;20843;-81
2021/12/11 04:08:34;;;;;;;0.90;0.60;;;;;;;;;;5062329;28;20418;-81
2021/12/11 04:11:00;;;;;;;1.50;0.60;;;;;;;;;;5080468;28;20407;-81
2021/12/11 04:13:26;;;;;;;1.10;0.60;;;;;;;;;;5066512;28;20410;-81
2021/12/11 04:15:54;;;;;;;1.10;0.57;;;;;;;;;;5083991;28;20421;-81
2021/12/11 04:18:20;;;;;;;1.37;0.70;;;;;;;;;;5065047;28;20473;-80
2021/12/11 04:20:47;;;;;;;0.97;0.50;;;;;;;;;;5083894;28;20402;-80
2021/12/11 04:23:14;;;;;;;1.10;0.67;;;;;;;;;;5066602;28;20411;-80
2021/12/11 04:25:41;;;;;;;0.90;0.50;;;;;;;;;;5066836;28;20406;-80
2021/12/11 04:28:08;;;;;;;0.90;0.50;;;;;;;;;;5085178;28;20449;-80
2021/12/11 04:30:35;;;;;;;1.00;0.50;;;;;;;;;;5084658;28;20407;-80
2021/12/11 04:33:02;;;;;;;0.90;0.50;;;;;;;;;;5084658;28;20403;-80
2021/12/11 04:35:30;;;;;;;0.90;0.60;;;;;;;;;;5085194;28;20950;-80
2021/12/11 04:37:58;;;;;;;1.00;0.57;;;;;;;;;;5084845;28;20403;-81
2021/12/11 04:40:27;;;;;;;0.90;0.50;;;;;;;;;;5084518;28;20409;-80
2021/12/11 04:43:04;;;;;;;1.00;0.60;;;;;;;;;;5066626;28;20403;-81
2021/12/11 04:45:34;;;;;;;0.90;0.50;;;;;;;;;;5063292;28;20405;-82
2021/12/11 04:48:11;;;;;;;0.90;0.50;;;;;;;;;;5062440;28;20411;-81
2021/12/11 04:50:53;;;;;;;0.97;0.57;;;;;;;;;;5063752;28;20406;-81
2021/12/11 04:53:33;;;;;;;0.90;0.50;;;;;;;;;;5082874;28;20917;-80
2021/12/11 04:58:58;;;;;;;0.90;0.50;;;;;;;;;;5081487;28;20812;-82
2021/12/11 05:01:41;;;;;;;0.90;0.50;;;;;;;;;;5079649;28;20520;-82
2021/12/11 05:04:37;;;;;;;0.90;0.50;;;;;;;;;;5080158;28;20897;-81
2021/12/11 05:07:19;;;;;;;0.90;0.60;;;;;;;;;;5079885;28;20422;-81
2021/12/11 05:09:56;;;;;;;0.90;0.50;;;;;;;;;;5062075;28;20409;-82
2021/12/11 05:14:52;;;;;;;0.90;0.50;;;;;;;;;;5079304;28;20419;-82
2021/12/11 05:17:18;;;;;;;0.90;0.50;;;;;;;;;;5081609;28;20427;-82
2021/12/11 05:19:44;;;;;;;1.10;0.60;;;;;;;;;;5061862;28;20466;-81
2021/12/11 05:22:11;;;;;;;0.90;0.60;;;;;;;;;;5078512;28;20414;-82
2021/12/11 05:24:39;;;;;;;1.13;0.60;;;;;;;;;;5060531;28;20410;-81
2021/12/11 05:27:05;;;;;;;0.90;0.50;;;;;;;;;;5077606;28;20426;-82
2021/12/11 05:29:31;;;;;;;0.90;0.53;;;;;;;;;;5076572;28;20410;-82
2021/12/11 05:31:58;;;;;;;0.90;0.50;;;;;;;;;;5059121;28;20416;-81
2021/12/11 05:34:24;;;;;;;1.00;0.50;;;;;;;;;;5058561;28;20419;-82
2021/12/11 05:36:50;;;;;;;1.03;0.63;;;;;;;;;;5058494;28;20463;-81
2021/12/11 05:39:17;;;;;;;0.90;0.50;;;;;;;;;;5058026;28;20469;-81
2021/12/11 05:41:45;;;;;;;0.90;0.60;;;;;;;;;;5075955;28;20409;-81
2021/12/11 05:44:12;;;;;;;0.90;0.50;;;;;;;;;;5059974;28;20433;-82
2021/12/11 05:46:38;;;;;;;1.00;0.60;;;;;;;;;;5092662;28;20450;-82
2021/12/11 05:49:05;;;;;;;0.90;0.50;;;;;;;;;;5093247;28;20781;-82
2021/12/11 05:51:38;;;;;;;0.90;0.50;;;;;;;;;;5083052;28;20414;-81
2021/12/11 05:54:05;;;;;;;1.00;0.60;;;;;;;;;;5076613;28;20387;-81
2021/12/11 05:56:35;;;;;;;0.90;0.50;;;;;;;;;;5057789;28;20431;-81
2021/12/11 05:59:01;;;;;;;0.90;0.50;;;;;;;;;;5058631;28;21099;-81
2021/12/11 06:01:33;;;;;;;2.13;0.50;;;;;;;;;;5062128;28;20422;-82
2021/12/11 06:04:00;;;;;;;0.90;0.50;;;;;;;;;;5092332;28;20399;-81
2021/12/11 06:06:27;;;;;;;0.90;0.50;;;;;;;;;;5075276;28;20435;-82
2021/12/11 06:08:53;;;;;;;0.90;0.53;;;;;;;;;;5093021;28;20415;-81
2021/12/11 06:11:19;;;;;;;0.90;0.50;;;;;;;;;;5064689;28;20414;-82
2021/12/11 06:13:45;;;;;;;0.90;0.50;;;;;;;;;;5059099;28;20407;-82
2021/12/11 06:16:12;;;;;;;0.90;0.60;;;;;;;;;;5059032;28;20442;-82
2021/12/11 06:18:38;;;;;;;1.00;0.60;;;;;;;;;;5076714;28;20457;-82
2021/12/11 06:21:04;;;;;;;0.90;0.50;;;;;;;;;;5076891;28;20399;-82
2021/12/11 06:23:30;;;;;;;1.10;0.60;;;;;;;;;;5076842;28;20790;-82
2021/12/11 06:25:57;;;;;;;0.90;0.50;;;;;;;;;;5076360;28;20945;-82
2021/12/11 06:28:24;;;;;;;1.20;0.60;;;;;;;;;;5059642;28;20445;-82
2021/12/11 06:30:52;;;;;;;1.30;0.70;;;;;;;;;;5058835;28;20415;-82
2021/12/11 06:33:18;;;;;;;1.10;0.70;;;;;;;;;;5078233;28;20406;-83
2021/12/11 06:35:53;;;;;;;1.00;0.60;;;;;;;;;;5061974;28;20435;-84
2021/12/11 06:38:22;;;;;;;1.00;0.60;;;;;;;;;;5062321;28;20453;-84
2021/12/11 06:40:48;;;;;;;1.10;0.70;;;;;;;;;;5061960;28;20411;-83
2021/12/11 06:43:15;;;;;;;1.57;1.00;;;;;;;;;;5059945;28;20438;-87
2021/12/11 06:45:41;;;;;;;0.97;0.60;;;;;;;;;;5057053;28;20468;-82
2021/12/11 06:48:07;;;;;;;1.47;0.73;;;;;;;;;;5074223;28;20419;-82
2021/12/11 06:50:33;;;;;;;1.00;0.70;;;;;;;;;;5056852;28;20419;-83
2021/12/11 06:53:01;;;;;;;1.10;0.70;;;;;;;;;;5075067;28;20403;-83
2021/12/11 06:55:27;;;;;;;1.00;0.53;;;;;;;;;;5056326;28;20505;-83
2021/12/11 06:57:53;;;;;;;1.00;0.60;;;;;;;;;;5078176;28;20411;-83
2021/12/11 07:00:21;;;;;;;0.90;0.57;;;;;;;;;;5061829;28;20457;-81
2021/12/11 07:02:47;;;;;;;1.10;0.63;;;;;;;;;;5054931;28;20415;-83
2021/12/11 07:05:13;;;;;;;0.90;0.60;;;;;;;;;;5073922;28;20415;-83
2021/12/11 07:07:41;;;;;;;1.07;0.60;;;;;;;;;;5055144;28;20466;-83
2021/12/11 07:10:08;;;;;;;1.07;0.53;;;;;;;;;;5036591;28;20422;-83
2021/12/11 07:12:35;;;;;;;0.90;0.50;;;;;;;;;;5037713;28;20438;-81
2021/12/11 07:15:01;;;;;;;1.33;0.83;;;;;;;;;;5053512;28;20412;-82
2021/12/11 07:17:27;;;;;;;1.80;0.97;;;;;;;;;;5054193;28;20431;-81
2021/12/11 07:19:54;;;;;;;1.40;1.00;;;;;;;;;;5058402;28;20462;-81
2021/12/11 07:22:20;;;;;;;2.27;1.17;;;;;;;;;;5075102;28;20426;-84
2021/12/11 07:24:56;;;;;;;3.87;1.63;;;;;;;;;;5034818;28;20423;-82
2021/12/11 07:27:22;;;;;;;9.20;2.70;;;;;;;;;;5060084;28;20515;-80
2021/12/11 07:29:48;;;;;;;4.10;1.80;;;;;;;;;;5041833;28;20890;-82
2021/12/11 07:32:14;;;;;;;4.90;1.73;;;;;;;;;;5048793;28;20438;-83
2021/12/11 07:34:43;;;;;;;6.33;2.73;;;;;;;;;;5056059;28;20411;-82
2021/12/11 07:37:09;;;;;;;2.00;1.40;;;;;;;;;;5056678;28;20451;-84
2021/12/11 07:39:35;;;;;;;3.27;1.90;;;;;;;;;;5073260;28;20465;-82
2021/12/11 07:42:01;;;;;;;15.90;6.37;;;;;;;;;;5067649;28;20424;-83
2021/12/11 07:44:28;;;;;;;23.80;7.90;;;;;;;;;;5051134;28;20408;-83
2021/12/11 07:46:55;;;;;;;25.57;10.30;;;;;;;;;;5062294;28;20450;-83
2021/12/11 07:49:21;;;;;;;18.20;6.73;;;;;;;;;;5053749;28;20582;-83
2021/12/11 07:51:49;;;;;;;14.20;6.30;;;;;;;;;;5074355;28;20431;-82
2021/12/11 07:54:16;;;;;;;16.97;6.03;;;;;;;;;;5075098;28;20429;-80
2021/12/11 07:56:42;;;;;;;13.67;5.37;;;;;;;;;;5075098;28;20499;-80
2021/12/11 07:59:09;;;;;;;22.87;8.47;;;;;;;;;;5074976;28;20461;-80
2021/12/11 08:01:37;;;;;;;19.90;7.97;;;;;;;;;;5056745;28;20423;-80
2021/12/11 08:04:04;;;;;;;14.37;6.20;;;;;;;;;;5065700;28;20824;-81
2021/12/11 08:06:32;;;;;;;15.07;6.10;;;;;;;;;;5061154;28;20439;-81
2021/12/11 08:08:58;;;;;;;16.60;7.77;;;;;;;;;;5058382;28;20425;-83
2021/12/11 08:11:28;;;;;;;16.90;6.77;;;;;;;;;;5046816;28;20842;-82
2021/12/11 08:13:55;;;;;;;19.10;6.60;;;;;;;;;;5054430;28;20779;-83
2021/12/11 08:16:24;;;;;;;13.97;5.50;;;;;;;;;;5076849;28;20855;-83
2021/12/11 08:18:52;;;;;;;10.97;5.87;;;;;;;;;;5073308;28;20455;-83
2021/12/11 08:21:18;;;;;;;11.37;5.60;;;;;;;;;;5042569;28;20443;-81
2021/12/11 08:23:47;;;;;;;19.43;5.90;;;;;;;;;;5058661;28;20427;-81
2021/12/11 08:26:20;;;;;;;13.70;6.10;;;;;;;;;;5075244;28;20791;-81
2021/12/11 08:28:46;;;;;;;19.90;6.97;;;;;;;;;;5083967;28;20478;-81
2021/12/11 08:31:14;;;;;;;11.73;5.57;;;;;;;;;;5065396;28;20851;-82
2021/12/11 08:33:41;;;;;;;35.63;9.40;;;;;;;;;;5079317;28;20403;-81
2021/12/11 08:36:07;;;;;;;21.23;7.63;;;;;;;;;;5065990;28;20521;-81
2021/12/11 08:38:33;;;;;;;21.43;7.00;;;;;;;;;;5040142;28;20459;-82
2021/12/11 08:41:01;;;;;;;15.33;5.37;;;;;;;;;;5040302;28;20424;-82
2021/12/11 08:43:27;;;;;;;16.33;6.37;;;;;;;;;;5058494;28;20391;-82
2021/12/11 08:46:01;;;;;;;16.13;5.77;;;;;;;;;;5046184;28;20461;-81
2021/12/11 08:48:28;;;;;;;18.50;5.93;;;;;;;;;;5078728;28;20398;-80
2021/12/11 08:50:58;;;;;;;9.87;3.83;;;;;;;;;;5074676;28;20445;-82
2021/12/11 08:53:24;;;;;;;13.13;5.27;;;;;;;;;;5078396;28;20901;-80
2021/12/11 08:55:54;;;;;;;14.90;5.80;;;;;;;;;;5064195;28;20446;-83
2021/12/11 08:58:20;;;;;;;10.80;4.50;;;;;;;;;;5082619;28;20465;-82
2021/12/11 09:00:51;;;;;;;11.73;4.80;;;;;;;;;;5058365;28;20419;-82
2021/12/11 09:03:23;;;;;;;16.17;6.63;;;;;;;;;;5049493;28;20415;-82
2021/12/11 09:06:03;;;;;;;17.20;5.80;;;;;;;;;;5071164;28;20426;-82
2021/12/11 09:08:34;;;;;;;16.43;5.87;;;;;;;;;;5085186;28;20422;-82
2021/12/11 09:11:08;;;;;;;19.73;5.13;;;;;;;;;;5078533;28;20407;-83
2021/12/11 09:13:41;;;;;;;10.67;4.53;;;;;;;;;;5059803;28;20439;-83
2021/12/11 09:16:19;;;;;;;10.70;6.10;;;;;;;;;;5045272;28;20453;-83
2021/12/11 09:18:45;;;;;;;14.40;5.67;;;;;;;;;;5063841;28;20537;-81
2021/12/11 09:21:14;;;;;;;11.77;4.80;;;;;;;;;;5057922;28;20421;-81
2021/12/11 09:24:04;;;;;;;9.97;4.63;;;;;;;;;;5053981;28;20411;-80
2021/12/11 09:26:39;;;;;;;14.00;5.70;;;;;;;;;;5037494;28;20442;-81
2021/12/11 09:29:12;;;;;;;12.50;4.43;;;;;;;;;;5061170;28;20425;-81
2021/12/11 09:31:58;;;;;;;14.00;5.13;;;;;;;;;;5052267;28;20414;-80
2021/12/11 09:34:27;;;;;;;6.77;2.97;;;;;;;;;;5075139;28;20421;-83
2021/12/11 09:36:56;;;;;;;8.30;3.60;;;;;;;;;;5075308;28;20836;-85
2021/12/11 09:39:25;;;;;;;5.40;2.37;;;;;;;;;;5048874;28;20459;-81
2021/12/11 09:41:51;;;;;;;4.37;2.20;;;;;;;;;;5071075;28;20902;-83
2021/12/11 09:44:31;;;;;;;14.53;2.50;;;;;;;;;;5056718;28;20983;-84
2021/12/11 09:47:09;;;;;;;8.07;3.13;;;;;;;;;;5079805;28;20445;-83
2021/12/11 09:49:38;;;;;;;5.53;2.87;;;;;;;;;;5062305;28;20400;-83
2021/12/11 09:52:16;;;;;;;8.97;3.53;;;;;;;;;;5040242;28;20956;-83
2021/12/11 09:54:42;;;;;;;5.30;2.53;;;;;;;;;;5056322;28;20770;-84
2021/12/11 09:57:10;;;;;;;7.30;4.10;;;;;;;;;;5056715;28;20435;-82
2021/12/11 09:59:38;;;;;;;8.33;3.97;;;;;;;;;;5039130;28;20470;-82
2021/12/11 10:02:06;;;;;;;6.97;3.10;;;;;;;;;;5060513;28;20407;-82
2021/12/11 10:04:37;;;;;;;10.37;3.90;;;;;;;;;;5051054;28;20439;-84
2021/12/11 10:07:25;;;;;;;6.13;3.83;;;;;;;;;;5052370;28;20439;-85
2021/12/11 10:09:53;;;;;;;7.50;2.97;;;;;;;;;;5054479;28;20442;-85
2021/12/11 10:12:21;;;;;;;7.80;3.37;;;;;;;;;;5054890;28;20418;-84
2021/12/11 10:15:20;;;;;;;5.90;3.30;;;;;;;;;;5055588;28;20476;-84
2021/12/11 10:18:06;;;;;;;2.80;1.23;;;;;;;;;;5024891;28;20950;-84
2021/12/11 10:20:47;;;;;;;3.33;1.27;;;;;;;;;;5042288;28;20427;-87
2021/12/11 10:23:15;;;;;;;2.03;1.13;;;;;;;;;;5035170;28;20465;-87
2021/12/11 10:25:43;;;;;;;1.77;0.90;;;;;;;;;;5064156;28;20407;-83
2021/12/11 10:28:10;;;;;;;2.43;1.10;;;;;;;;;;5059032;28;20469;-82
2021/12/11 10:30:39;;;;;;;1.67;1.17;;;;;;;;;;5059739;28;20925;-81
2021/12/11 10:33:06;;;;;;;1.50;0.97;;;;;;;;;;5074801;28;20875;-80
2021/12/11 10:35:34;;;;;;;1.63;0.80;;;;;;;;;;5072013;28;20498;-83
2021/12/11 10:38:03;;;;;;;4.20;2.20;;;;;;;;;;5073116;28;20419;-82
2021/12/11 10:40:34;;;;;;;4.80;2.27;;;;;;;;;;5071500;28;20426;-80
2021/12/11 10:43:02;;;;;;;6.33;2.60;;;;;;;;;;5074534;28;20478;-82
2021/12/11 10:45:29;;;;;;;4.40;2.03;;;;;;;;;;5074492;28;20405;-83
2021/12/11 10:47:59;;;;;;;4.17;2.10;;;;;;;;;;5057114;28;20417;-81
2021/12/11 10:50:40;;;;;;;8.40;2.00;;;;;;;;;;5055589;28;20900;-81
2021/12/11 10:53:08;;;;;;;4.23;2.33;;;;;;;;;;5071723;28;20469;-80
2021/12/11 10:55:35;;;;;;;4.43;1.97;;;;;;;;;;5071672;28;20413;-80
2021/12/11 10:58:04;;;;;;;2.27;1.40;;;;;;;;;;5053732;28;20422;-82
2021/12/11 11:00:36;;;;;;;11.43;1.80;;;;;;;;;;5071031;28;20411;-81
2021/12/11 11:03:03;;;;;;;4.37;2.30;;;;;;;;;;5072229;28;20467;-81
2021/12/11 11:05:30;;;;;;;2.70;1.60;;;;;;;;;;5057703;28;20433;-81
2021/12/11 11:07:56;;;;;;;2.60;1.20;;;;;;;;;;5037162;28;20416;-82
2021/12/11 11:10:27;;;;;;;5.70;1.87;;;;;;;;;;5069256;28;20408;-82
2021/12/11 11:12:54;;;;;;;5.20;2.27;;;;;;;;;;5037597;28;20447;-83
2021/12/11 11:15:23;;;;;;;7.63;2.20;;;;;;;;;;5037924;28;20412;-83
2021/12/11 11:17:49;;;;;;;2.20;1.20;;;;;;;;;;5045402;28;20427;-83
2021/12/11 11:20:17;;;;;;;3.70;2.03;;;;;;;;;;5081075;28;20464;-84
2021/12/11 11:22:44;;;;;;;6.50;1.90;;;;;;;;;;5063422;28;20414;-84
2021/12/11 11:25:12;;;;;;;6.70;2.13;;;;;;;;;;5044888;28;20415;-83
2021/12/11 11:27:39;;;;;;;2.93;1.50;;;;;;;;;;5058335;28;20435;-83
2021/12/11 11:30:07;;;;;;;8.70;1.87;;;;;;;;;;5074771;28;20881;-83
2021/12/11 11:32:33;;;;;;;6.27;2.50;;;;;;;;;;5045612;28;20434;-83
2021/12/11 11:35:02;;;;;;;4.80;1.70;;;;;;;;;;5091140;28;20526;-83
2021/12/11 11:37:34;;;;;;;4.70;1.90;;;;;;;;;;5095848;28;20422;-86
2021/12/11 11:40:00;;;;;;;6.00;2.20;;;;;;;;;;5096499;28;20482;-86
2021/12/11 11:42:26;;;;;;;3.83;1.50;;;;;;;;;;5089829;28;20481;-81
2021/12/11 11:44:55;;;;;;;3.70;1.60;;;;;;;;;;5073120;28;20435;-81
2021/12/11 11:47:24;;;;;;;4.00;1.80;;;;;;;;;;5060259;28;20451;-81
2021/12/11 11:49:56;;;;;;;3.20;1.63;;;;;;;;;;5054708;28;20817;-82
2021/12/11 11:52:22;;;;;;;10.03;2.07;;;;;;;;;;5072911;28;20442;-82
2021/12/11 11:54:51;;;;;;;4.13;1.60;;;;;;;;;;5050982;28;20532;-84
2021/12/11 11:57:20;;;;;;;2.97;1.40;;;;;;;;;;5079007;28;20794;-83
2021/12/11 11:59:46;;;;;;;4.73;2.20;;;;;;;;;;5068669;28;20522;-82
2021/12/11 12:02:16;;;;;;;4.10;1.47;;;;;;;;;;5048693;28;20473;-82
2021/12/11 12:04:42;;;;;;;3.20;1.50;;;;;;;;;;5048121;28;20416;-83
2021/12/11 12:07:09;;;;;;;4.50;1.30;;;;;;;;;;5048407;28;20575;-83
2021/12/11 12:09:40;;;;;;;2.50;1.67;;;;;;;;;;5040599;28;20432;-81
2021/12/11 12:12:09;;;;;;;3.13;1.17;;;;;;;;;;5039004;28;20502;-81
2021/12/11 12:14:36;;;;;;;3.83;1.30;;;;;;;;;;5054046;28;20411;-83
2021/12/11 12:17:04;;;;;;;2.47;1.20;;;;;;;;;;5072595;28;20431;-83
2021/12/11 12:19:30;;;;;;;5.07;2.13;;;;;;;;;;5061468;28;20501;-83
2021/12/11 12:21:57;;;;;;;6.80;1.83;;;;;;;;;;5037491;28;20495;-81
2021/12/11 12:24:25;;;;;;;2.50;0.80;;;;;;;;;;5059564;28;20406;-81
2021/12/11 12:26:51;;;;;;;1.13;0.60;;;;;;;;;;5071672;28;20439;-80
2021/12/11 12:29:19;;;;;;;4.17;0.90;;;;;;;;;;5071173;28;20933;-82
2021/12/11 12:31:48;;;;;;;2.60;1.20;;;;;;;;;;5055563;28;20414;-82
2021/12/11 12:34:15;;;;;;;5.17;0.97;;;;;;;;;;5063904;28;20775;-80
2021/12/11 12:36:44;;;;;;;6.30;1.07;;;;;;;;;;5059232;28;20553;-82
2021/12/11 12:39:10;;;;;;;1.30;0.73;;;;;;;;;;5052472;28;20500;-83
2021/12/11 12:41:42;;;;;;;2.90;0.97;;;;;;;;;;5078623;28;20425;-83
2021/12/11 12:46:43;;;;;;;1.20;0.70;;;;;;;;;;5078474;28;20450;-83
2021/12/11 12:49:11;;;;;;;1.17;0.70;;;;;;;;;;5040860;28;20435;-83
2021/12/11 12:51:38;;;;;;;1.10;0.63;;;;;;;;;;5059229;28;20418;-83
2021/12/11 12:54:06;;;;;;;1.37;0.80;;;;;;;;;;5045199;28;21110;-82
2021/12/11 12:56:41;;;;;;;2.73;0.80;;;;;;;;;;5051268;28;20451;-82
2021/12/11 12:59:19;;;;;;;1.50;0.90;;;;;;;;;;5043865;28;21037;-82
2021/12/11 13:01:48;;;;;;;1.40;0.70;;;;;;;;;;5074325;28;20403;-83
2021/12/11 13:04:16;;;;;;;3.07;0.90;;;;;;;;;;5057115;28;20442;-83
2021/12/11 13:06:54;;;;;;;2.00;1.00;;;;;;;;;;5053725;28;20433;-83
2021/12/11 13:09:26;;;;;;;2.00;1.37;;;;;;;;;;5057332;28;20411;-84
2021/12/11 13:11:54;;;;;;;1.50;0.90;;;;;;;;;;5073790;28;20513;-84
2021/12/11 13:14:20;;;;;;;1.40;1.10;;;;;;;;;;5074621;28;20422;-83
2021/12/11 13:16:50;;;;;;;1.80;1.00;;;;;;;;;;5072664;28;20439;-81
2021/12/11 13:19:21;;;;;;;1.30;0.70;;;;;;;;;;5054993;28;20980;-83
2021/12/11 13:21:53;;;;;;;1.23;0.80;;;;;;;;;;5051407;28;20430;-84
2021/12/11 13:24:20;;;;;;;1.60;1.00;;;;;;;;;;5045796;28;20404;-83
2021/12/11 13:26:47;;;;;;;2.63;0.90;;;;;;;;;;5074804;28;20545;-83
2021/12/11 13:29:15;;;;;;;2.00;1.10;;;;;;;;;;5074117;28;20481;-83
2021/12/11 13:31:51;;;;;;;1.40;0.90;;;;;;;;;;5052818;28;20751;-83
2021/12/11 13:34:18;;;;;;;1.10;0.70;;;;;;;;;;5075019;28;20419;-83
2021/12/11 13:36:44;;;;;;;2.07;0.87;;;;;;;;;;5073284;28;20442;-83
2021/12/11 13:39:12;;;;;;;2.07;0.60;;;;;;;;;;5053684;28;21029;-83
2021/12/11 13:41:41;;;;;;;0.90;0.60;;;;;;;;;;5056298;28;20506;-83
2021/12/11 13:44:07;;;;;;;1.60;0.87;;;;;;;;;;5065994;28;20420;-83
2021/12/11 13:46:34;;;;;;;1.27;0.77;;;;;;;;;;5071166;28;20454;-82
2021/12/11 13:49:00;;;;;;;3.33;0.70;;;;;;;;;;5058550;28;20419;-81
2021/12/11 13:51:28;;;;;;;1.17;0.80;;;;;;;;;;5058498;28;20422;-84
2021/12/11 13:53:55;;;;;;;1.30;0.87;;;;;;;;;;5072881;28;20518;-81
2021/12/11 13:56:27;;;;;;;1.10;0.73;;;;;;;;;;5055568;28;20430;-80
2021/12/11 13:58:53;;;;;;;1.20;0.70;;;;;;;;;;5073731;28;20562;-81
2021/12/11 14:01:23;;;;;;;2.33;1.30;;;;;;;;;;5066030;28;20534;-81
2021/12/11 14:03:50;;;;;;;1.17;0.80;;;;;;;;;;5072593;28;20431;-81
2021/12/11 14:06:17;;;;;;;1.70;0.70;;;;;;;;;;5073817;28;20438;-84
2021/12/11 14:08:43;;;;;;;1.10;0.70;;;;;;;;;;5074514;28;20476;-83
2021/12/11 14:11:11;;;;;;;1.07;0.60;;;;;;;;;;5056276;28;20460;-83
2021/12/11 14:13:37;;;;;;;1.43;0.70;;;;;;;;;;5073907;28;20419;-83
2021/12/11 14:16:04;;;;;;;1.10;0.60;;;;;;;;;;5077258;28;20443;-82
2021/12/11 14:18:30;;;;;;;1.00;0.60;;;;;;;;;;5073291;28;20918;-83
2021/12/11 14:20:56;;;;;;;1.20;0.60;;;;;;;;;;5048268;28;20423;-84
2021/12/11 14:23:26;;;;;;;1.00;0.70;;;;;;;;;;5073170;28;20504;-83
2021/12/11 14:25:53;;;;;;;3.20;1.10;;;;;;;;;;5073543;28;20491;-82
2021/12/11 14:28:24;;;;;;;2.07;0.80;;;;;;;;;;5072589;28;20483;-83
2021/12/11 14:30:52;;;;;;;1.40;0.80;;;;;;;;;;5073104;28;20481;-83
2021/12/11 14:33:18;;;;;;;1.10;0.70;;;;;;;;;;5056821;28;20422;-82
2021/12/11 14:35:45;;;;;;;1.10;0.60;;;;;;;;;;5049624;28;20443;-81
2021/12/11 14:38:12;;;;;;;1.00;0.60;;;;;;;;;;5056634;28;20411;-82
2021/12/11 14:40:40;;;;;;;1.37;0.80;;;;;;;;;;5046277;28;20524;-81
2021/12/11 14:43:06;;;;;;;1.50;0.97;;;;;;;;;;5066159;28;20415;-82
2021/12/11 14:45:34;;;;;;;1.53;0.80;;;;;;;;;;5052905;28;20429;-84
2021/12/11 14:48:01;;;;;;;1.70;0.90;;;;;;;;;;5058449;28;20414;-82
2021/12/11 14:50:29;;;;;;;1.10;0.70;;;;;;;;;;5075741;28;20411;-81
2021/12/11 14:52:56;;;;;;;1.00;0.60;;;;;;;;;;5076897;28;20399;-80
2021/12/11 14:55:24;;;;;;;1.20;0.60;;;;;;;;;;5076207;28;20414;-81
2021/12/11 14:57:51;;;;;;;1.20;0.70;;;;;;;;;;5075574;28;20878;-82
2021/12/11 15:00:18;;;;;;;0.90;0.50;;;;;;;;;;5057125;28;20484;-82
2021/12/11 15:02:45;;;;;;;1.20;0.70;;;;;;;;;;5075638;28;20901;-82